Time;durP1;ratioP1;P1;durP2;ratioP2;P2;SDS_P1;SDS_P2;PMS_P1;PMS_P2;Temp;Humidity;BMP_temperature;BMP_pressure;BME280_temperature;BME280_humidity;BME280_pressure;Samples;Min_cycle;Max_cycle;Signal;HPM_P1;HPM_P2
2021/11/20 00:01:52;;;;;;;1.73;1.63;;;18.20;57.60;;;;;;4991733;28;20108;-59
2021/11/20 00:04:18;;;;;;;2.55;1.48;;;18.20;57.60;;;;;;4987758;28;20031;-58
2021/11/20 00:06:46;;;;;;;1.70;1.30;;;18.20;57.60;;;;;;4992492;28;20441;-59
2021/11/20 00:09:13;;;;;;;1.33;1.23;;;18.20;57.60;;;;;;4957514;28;20037;-60
2021/11/20 00:11:40;;;;;;;2.15;1.40;;;18.20;57.60;;;;;;4992525;28;20495;-59
2021/11/20 00:14:06;;;;;;;1.60;1.50;;;18.20;57.70;;;;;;4993001;28;20034;-60
2021/11/20 00:16:31;;;;;;;1.67;1.45;;;18.20;57.70;;;;;;4991396;28;20418;-60
2021/11/20 00:18:57;;;;;;;2.20;1.50;;;18.20;57.60;;;;;;4986759;28;20582;-60
2021/11/20 00:21:33;;;;;;;2.85;1.48;;;18.20;57.60;;;;;;4989137;28;20109;-58
2021/11/20 00:24:00;;;;;;;1.77;1.50;;;18.20;57.60;;;;;;5007107;28;20037;-60
2021/11/20 00:26:29;;;;;;;1.80;1.70;;;18.20;57.60;;;;;;5005544;28;20030;-59
2021/11/20 00:31:28;;;;;;;1.33;1.23;;;18.20;57.70;;;;;;5009241;28;20029;-59
2021/11/20 00:33:53;;;;;;;2.22;1.50;;;18.20;57.70;;;;;;4992823;28;20034;-59
2021/11/20 00:36:20;;;;;;;2.28;1.63;;;18.20;57.80;;;;;;4992763;28;20030;-59
2021/11/20 00:38:45;;;;;;;1.40;1.30;;;18.20;57.70;;;;;;4967613;28;20027;-57
2021/11/20 00:41:14;;;;;;;2.75;1.50;;;18.20;57.70;;;;;;5001562;28;20132;-59
2021/11/20 00:43:41;;;;;;;2.00;1.52;;;18.20;57.70;;;;;;5001856;28;20029;-59
2021/11/20 00:46:06;;;;;;;2.08;1.48;;;18.20;57.80;;;;;;5001594;28;20049;-57
2021/11/20 00:48:32;;;;;;;2.17;1.83;;;18.20;57.80;;;;;;4984042;28;20022;-59
2021/11/20 00:51:00;;;;;;;2.90;1.30;;;18.20;57.80;;;;;;5001652;28;20511;-59
2021/11/20 00:53:25;;;;;;;3.30;1.90;;;18.20;57.80;;;;;;5001572;28;20100;-60
2021/11/20 00:55:51;;;;;;;2.35;1.67;;;18.20;57.80;;;;;;5000666;28;20722;-59
2021/11/20 00:58:16;;;;;;;1.83;1.30;;;18.20;57.80;;;;;;5001017;28;20057;-59
2021/11/20 01:00:48;;;;;;;1.85;1.75;;;18.20;57.80;;;;;;5000341;28;20057;-58
2021/11/20 01:03:13;;;;;;;2.80;1.58;;;18.20;57.80;;;;;;5001264;28;20678;-58
2021/11/20 01:05:39;;;;;;;2.10;1.80;;;18.20;57.80;;;;;;5000962;28;20049;-59
2021/11/20 01:08:06;;;;;;;2.20;1.90;;;18.20;57.80;;;;;;4983209;28;20033;-59
2021/11/20 01:10:33;;;;;;;1.90;1.60;;;18.20;57.80;;;;;;5000752;28;20038;-59
2021/11/20 01:12:59;;;;;;;2.10;1.80;;;18.20;57.80;;;;;;5001263;28;20056;-59
2021/11/20 01:15:28;;;;;;;2.90;1.70;;;18.20;57.80;;;;;;5000750;28;20053;-58
2021/11/20 01:17:54;;;;;;;2.30;2.10;;;18.10;57.80;;;;;;4983565;28;20030;-58
2021/11/20 01:20:19;;;;;;;2.15;1.95;;;18.10;57.80;;;;;;4982847;28;20681;-59
2021/11/20 01:22:45;;;;;;;2.65;1.75;;;18.10;57.80;;;;;;4999690;28;20660;-59
2021/11/20 01:25:11;;;;;;;2.15;1.42;;;18.10;57.80;;;;;;5001213;28;20482;-56
2021/11/20 01:27:37;;;;;;;2.20;1.70;;;18.10;57.90;;;;;;5000520;28;20033;-59
2021/11/20 01:30:04;;;;;;;1.85;1.60;;;18.10;57.90;;;;;;5000393;28;20080;-60
2021/11/20 01:32:30;;;;;;;1.90;1.70;;;18.10;58.00;;;;;;5001147;28;20053;-59
2021/11/20 01:34:55;;;;;;;2.22;1.90;;;18.10;58.00;;;;;;4999833;28;20147;-59
2021/11/20 01:37:21;;;;;;;1.60;1.45;;;18.10;58.00;;;;;;5001414;28;20038;-59
2021/11/20 01:39:47;;;;;;;1.75;1.65;;;18.10;58.00;;;;;;5000768;28;20034;-59
2021/11/20 01:42:21;;;;;;;2.38;1.75;;;18.10;58.00;;;;;;5000705;28;20054;-58
2021/11/20 01:44:48;;;;;;;1.90;1.50;;;18.10;58.00;;;;;;4968011;28;20030;-59
2021/11/20 01:47:48;;;;;;;1.90;1.52;;;18.10;58.00;;;;;;4983023;28;20495;-60
2021/11/20 01:50:26;;;;;;;1.83;1.70;;;18.10;58.00;;;;;;5004047;28;20038;-59
2021/11/20 01:53:04;;;;;;;2.00;1.80;;;18.10;58.00;;;;;;5007494;28;20034;-59
2021/11/20 01:55:40;;;;;;;2.55;2.28;;;18.20;58.00;;;;;;4988989;28;20037;-59
2021/11/20 01:58:14;;;;;;;2.85;1.67;;;18.10;57.90;;;;;;4990568;28;20027;-59
2021/11/20 02:01:06;;;;;;;1.75;1.65;;;18.10;57.90;;;;;;4994125;28;20033;-60
2021/11/20 02:03:43;;;;;;;2.45;1.88;;;18.20;57.90;;;;;;5003777;28;20509;-58
2021/11/20 02:06:14;;;;;;;2.28;1.63;;;18.20;57.90;;;;;;4978433;28;20582;-60
2021/11/20 02:08:42;;;;;;;1.98;1.77;;;18.20;57.80;;;;;;5001562;28;20034;-60
2021/11/20 02:11:15;;;;;;;2.00;1.80;;;18.20;57.80;;;;;;5005797;28;20030;-59
2021/11/20 02:13:41;;;;;;;2.13;1.92;;;18.20;57.70;;;;;;5007248;28;20061;-59
2021/11/20 02:16:13;;;;;;;2.50;1.60;;;18.20;57.70;;;;;;5007216;28;20093;-59
2021/11/20 02:18:42;;;;;;;2.75;1.92;;;18.20;57.70;;;;;;4989960;28;20412;-59
2021/11/20 02:21:17;;;;;;;2.15;1.95;;;18.20;57.70;;;;;;5007266;28;20095;-59
2021/11/20 02:23:43;;;;;;;1.95;1.70;;;18.20;57.60;;;;;;4990137;28;20045;-58
2021/11/20 02:26:08;;;;;;;2.50;1.98;;;18.20;57.60;;;;;;5007092;28;20034;-59
2021/11/20 02:28:34;;;;;;;1.60;1.50;;;18.20;57.60;;;;;;5006731;28;20034;-58
2021/11/20 02:31:01;;;;;;;1.92;1.55;;;18.20;57.60;;;;;;5007666;28;20022;-60
2021/11/20 02:33:28;;;;;;;2.47;1.75;;;18.20;57.60;;;;;;5007060;28;20056;-60
2021/11/20 02:35:57;;;;;;;2.95;1.90;;;18.20;57.60;;;;;;5006551;28;20038;-60
2021/11/20 02:38:24;;;;;;;1.95;1.65;;;18.20;57.60;;;;;;4989301;28;20033;-60
2021/11/20 02:40:49;;;;;;;2.28;2.08;;;18.20;57.60;;;;;;5006405;28;20450;-59
2021/11/20 02:43:15;;;;;;;2.17;1.98;;;18.20;57.50;;;;;;5007244;28;20026;-58
2021/11/20 02:45:44;;;;;;;3.65;1.80;;;18.20;57.50;;;;;;5005875;28;20045;-59
2021/11/20 02:48:10;;;;;;;1.85;1.48;;;18.20;57.60;;;;;;5007020;28;20026;-60
2021/11/20 02:50:37;;;;;;;2.30;2.10;;;18.20;57.60;;;;;;4972141;28;20029;-59
2021/11/20 02:53:04;;;;;;;1.65;1.55;;;18.20;57.60;;;;;;5006665;28;20048;-65
2021/11/20 02:55:32;;;;;;;2.13;1.92;;;18.20;57.60;;;;;;5005886;28;20029;-60
2021/11/20 02:57:58;;;;;;;2.75;1.88;;;18.30;57.60;;;;;;5006882;28;20034;-60
2021/11/20 03:00:23;;;;;;;1.83;1.73;;;18.20;57.50;;;;;;4985043;28;20559;-60
2021/11/20 03:02:49;;;;;;;2.42;1.95;;;18.20;57.50;;;;;;5003724;28;20045;-59
2021/11/20 03:05:14;;;;;;;1.70;1.60;;;18.20;57.50;;;;;;5003410;28;20495;-59
2021/11/20 03:07:40;;;;;;;1.70;1.58;;;18.30;57.60;;;;;;5002546;28;20046;-59
2021/11/20 03:10:06;;;;;;;2.47;1.50;;;18.20;57.50;;;;;;5003522;28;20526;-59
2021/11/20 03:12:31;;;;;;;1.98;1.88;;;18.20;58.20;;;;;;5003642;28;20034;-60
2021/11/20 03:14:57;;;;;;;2.47;1.65;;;18.20;57.50;;;;;;5004814;28;20088;-59
2021/11/20 03:17:23;;;;;;;1.73;1.63;;;18.20;57.50;;;;;;4986217;28;20137;-58
2021/11/20 03:19:49;;;;;;;2.05;1.90;;;18.20;57.50;;;;;;5002584;28;20030;-58
2021/11/20 03:22:24;;;;;;;1.70;1.60;;;18.20;58.20;;;;;;4998625;28;20572;-58
2021/11/20 03:24:49;;;;;;;2.57;1.63;;;18.20;58.10;;;;;;4975883;28;20688;-58
2021/11/20 03:27:15;;;;;;;1.95;1.60;;;18.20;57.50;;;;;;5002973;28;20030;-58
2021/11/20 03:29:40;;;;;;;2.28;1.70;;;18.20;57.60;;;;;;4995903;28;20045;-59
2021/11/20 03:32:06;;;;;;;3.33;1.95;;;18.20;57.60;;;;;;5022558;28;20026;-58
2021/11/20 03:34:32;;;;;;;2.22;2.00;;;18.20;57.60;;;;;;4988554;28;20033;-59
2021/11/20 03:36:58;;;;;;;2.28;1.67;;;18.20;57.70;;;;;;4987440;28;20165;-58
2021/11/20 03:39:23;;;;;;;1.88;1.63;;;18.20;57.60;;;;;;4990165;28;20033;-58
2021/11/20 03:41:49;;;;;;;1.80;1.67;;;18.20;57.60;;;;;;4985338;28;20133;-60
2021/11/20 03:44:14;;;;;;;2.25;2.05;;;18.20;57.60;;;;;;5002637;28;20110;-59
2021/11/20 03:46:40;;;;;;;1.60;1.50;;;18.20;57.60;;;;;;4990669;28;20030;-59
2021/11/20 03:49:06;;;;;;;2.47;1.95;;;18.20;57.60;;;;;;4980445;28;20118;-59
2021/11/20 03:51:31;;;;;;;2.72;1.85;;;18.20;57.60;;;;;;4991285;28;20026;-59
2021/11/20 03:53:57;;;;;;;2.03;1.77;;;18.20;57.60;;;;;;4986486;28;20034;-59
2021/11/20 03:56:22;;;;;;;2.65;2.03;;;18.20;57.60;;;;;;4971686;28;21550;-60
2021/11/20 03:58:48;;;;;;;1.70;1.60;;;18.20;57.60;;;;;;4992903;28;20030;-59
2021/11/20 04:01:15;;;;;;;2.63;1.75;;;18.20;57.60;;;;;;4995056;28;20566;-59
2021/11/20 04:03:41;;;;;;;1.70;1.60;;;18.20;57.60;;;;;;4988193;28;20034;-59
2021/11/20 04:06:12;;;;;;;3.03;1.95;;;18.20;57.60;;;;;;4990895;28;21435;-58
2021/11/20 04:08:41;;;;;;;2.67;2.17;;;18.20;57.60;;;;;;4987158;28;20030;-59
2021/11/20 04:11:07;;;;;;;3.60;1.75;;;18.10;57.60;;;;;;5003156;28;20693;-60
2021/11/20 04:13:34;;;;;;;1.70;1.60;;;18.10;57.60;;;;;;4991393;28;20062;-59
2021/11/20 04:15:59;;;;;;;2.40;1.90;;;18.10;57.60;;;;;;4990927;28;20057;-59
2021/11/20 04:18:25;;;;;;;2.13;1.90;;;18.10;57.60;;;;;;4989750;28;20108;-59
2021/11/20 04:20:50;;;;;;;2.10;2.00;;;18.20;57.70;;;;;;4973216;28;20034;-60
2021/11/20 04:23:16;;;;;;;2.45;2.15;;;18.10;57.60;;;;;;5002806;23;20501;-67
2021/11/20 04:25:42;;;;;;;2.00;1.67;;;18.10;57.60;;;;;;5004661;28;20053;-67
2021/11/20 04:28:07;;;;;;;2.10;1.90;;;18.20;57.60;;;;;;5005400;28;20026;-67
2021/11/20 04:30:33;;;;;;;1.70;1.60;;;18.10;57.60;;;;;;5005976;28;20037;-67
2021/11/20 04:32:58;;;;;;;3.45;1.80;;;18.10;57.60;;;;;;5006280;28;20026;-66
2021/11/20 04:35:24;;;;;;;2.10;1.90;;;18.10;57.60;;;;;;5006298;28;20033;-67
2021/11/20 04:37:50;;;;;;;1.83;1.70;;;18.10;57.60;;;;;;5006383;28;20030;-67
2021/11/20 04:40:16;;;;;;;2.20;2.00;;;18.10;57.60;;;;;;5006218;28;20403;-67
2021/11/20 04:42:41;;;;;;;1.77;1.60;;;18.10;57.60;;;;;;5006320;28;20399;-68
2021/11/20 04:45:08;;;;;;;2.15;1.83;;;18.10;57.60;;;;;;5006727;28;20503;-66
2021/11/20 04:47:33;;;;;;;1.90;1.70;;;18.10;57.60;;;;;;5006279;28;20022;-67
2021/11/20 04:49:59;;;;;;;2.67;1.77;;;18.10;57.60;;;;;;5004212;28;20030;-68
2021/11/20 04:52:24;;;;;;;1.80;1.70;;;18.10;57.60;;;;;;5004910;28;20105;-68
2021/11/20 04:54:50;;;;;;;1.60;1.50;;;18.10;57.60;;;;;;5006353;28;20030;-67
2021/11/20 04:57:15;;;;;;;2.50;1.55;;;18.10;57.60;;;;;;5006129;28;20112;-68
2021/11/20 04:59:41;;;;;;;2.10;1.67;;;18.10;57.60;;;;;;5004619;28;20500;-65
2021/11/20 05:02:07;;;;;;;1.73;1.63;;;18.10;57.60;;;;;;5005915;28;20043;-67
2021/11/20 05:04:34;;;;;;;2.72;1.60;;;18.10;57.60;;;;;;5004438;28;20080;-66
2021/11/20 05:06:59;;;;;;;2.50;2.15;;;18.10;57.60;;;;;;5004858;28;20440;-66
2021/11/20 05:09:24;;;;;;;1.85;1.63;;;18.10;57.60;;;;;;5005851;28;20022;-65
2021/11/20 05:11:50;;;;;;;1.85;1.60;;;18.10;57.60;;;;;;5005337;28;20026;-67
2021/11/20 05:14:16;;;;;;;1.85;1.58;;;18.10;57.60;;;;;;5005968;28;20032;-65
2021/11/20 05:16:41;;;;;;;2.00;1.75;;;18.10;57.60;;;;;;5005909;28;20391;-66
2021/11/20 05:19:07;;;;;;;1.92;1.52;;;18.10;57.60;;;;;;5006124;28;20038;-67
2021/11/20 05:21:32;;;;;;;1.52;1.42;;;18.20;57.60;;;;;;5005962;28;20404;-69
2021/11/20 05:23:58;;;;;;;2.83;1.80;;;18.10;57.60;;;;;;5005498;28;20110;-66
2021/11/20 05:26:23;;;;;;;1.83;1.73;;;18.10;57.60;;;;;;5005780;28;20516;-67
2021/11/20 05:28:57;;;;;;;1.40;1.30;;;18.10;57.60;;;;;;5005735;28;20072;-67
2021/11/20 05:31:24;;;;;;;2.20;1.63;;;18.10;57.60;;;;;;5006151;28;20115;-65
2021/11/20 05:33:51;;;;;;;1.65;1.40;;;18.10;57.60;;;;;;5004830;28;20018;-66
2021/11/20 05:36:17;;;;;;;2.65;2.08;;;18.10;57.60;;;;;;5005937;28;20022;-66
2021/11/20 05:38:42;;;;;;;2.60;1.63;;;18.10;57.60;;;;;;5005565;28;20491;-69
2021/11/20 05:41:08;;;;;;;2.55;1.63;;;18.10;57.60;;;;;;5004134;28;20065;-66
2021/11/20 05:43:34;;;;;;;2.20;1.55;;;18.10;57.60;;;;;;5005385;28;20416;-67
2021/11/20 05:46:06;;;;;;;3.38;1.77;;;18.10;57.60;;;;;;5005171;28;20026;-66
2021/11/20 05:48:31;;;;;;;1.55;1.45;;;18.10;57.60;;;;;;5005005;28;20022;-69
2021/11/20 05:50:57;;;;;;;1.85;1.50;;;18.10;57.60;;;;;;5004895;28;20412;-66
2021/11/20 05:53:23;;;;;;;1.60;1.50;;;18.20;57.60;;;;;;5005427;28;20026;-67
2021/11/20 05:55:50;;;;;;;2.13;1.88;;;18.10;57.60;;;;;;5004974;28;20071;-67
2021/11/20 05:58:15;;;;;;;1.80;1.70;;;18.10;57.60;;;;;;5003936;28;20033;-66
2021/11/20 06:00:43;;;;;;;3.67;2.05;;;18.10;57.60;;;;;;5004529;28;20034;-66
2021/11/20 06:03:09;;;;;;;1.75;1.40;;;18.10;57.60;;;;;;5005363;28;20029;-66
2021/11/20 06:05:35;;;;;;;1.52;1.42;;;18.10;57.70;;;;;;5004877;28;20029;-66
2021/11/20 06:08:00;;;;;;;3.20;1.90;;;18.20;57.80;;;;;;5004767;28;20022;-67
2021/11/20 06:10:26;;;;;;;2.05;1.67;;;18.10;57.70;;;;;;5005164;28;20030;-66
2021/11/20 06:12:51;;;;;;;4.35;1.73;;;18.10;57.80;;;;;;5004441;28;20022;-66
2021/11/20 06:15:17;;;;;;;4.07;1.63;;;18.20;57.80;;;;;;5005075;28;20026;-66
2021/11/20 06:17:42;;;;;;;2.83;1.52;;;18.20;57.80;;;;;;5005452;28;20188;-67
2021/11/20 06:20:08;;;;;;;1.88;1.65;;;18.20;57.80;;;;;;5004657;28;20493;-68
2021/11/20 06:22:34;;;;;;;4.60;1.88;;;18.20;57.80;;;;;;5005631;28;20040;-67
2021/11/20 06:24:59;;;;;;;6.88;1.55;;;18.20;57.80;;;;;;5004921;28;20026;-66
2021/11/20 06:27:25;;;;;;;2.35;1.48;;;18.20;57.80;;;;;;5003730;28;20061;-67
2021/11/20 06:29:50;;;;;;;2.35;1.40;;;18.20;58.50;;;;;;5004618;28;20076;-67
2021/11/20 06:32:16;;;;;;;1.90;1.52;;;18.20;57.80;;;;;;5005049;28;20476;-67
2021/11/20 06:34:42;;;;;;;1.55;1.45;;;18.20;57.80;;;;;;5003595;28;20026;-68
2021/11/20 06:37:07;;;;;;;1.70;1.60;;;18.20;57.80;;;;;;5008952;28;20025;-66
2021/11/20 06:39:34;;;;;;;2.20;1.40;;;18.20;57.80;;;;;;5010250;28;20022;-68
2021/11/20 06:42:03;;;;;;;1.98;1.25;;;18.20;57.80;;;;;;5007605;28;20088;-67
2021/11/20 06:44:29;;;;;;;1.83;1.35;;;18.20;57.80;;;;;;5008794;28;20037;-67
2021/11/20 06:46:55;;;;;;;1.63;1.52;;;18.20;57.80;;;;;;5006934;28;20675;-67
2021/11/20 06:49:21;;;;;;;2.25;1.27;;;18.20;57.80;;;;;;5008206;28;20071;-67
2021/11/20 06:51:46;;;;;;;3.13;1.75;;;18.20;57.80;;;;;;5008752;28;20024;-66
2021/11/20 06:54:12;;;;;;;2.00;1.85;;;18.20;57.80;;;;;;5008333;28;20022;-66
2021/11/20 06:56:52;;;;;;;2.33;1.88;;;18.20;57.80;;;;;;5006834;28;20022;-67
2021/11/20 07:00:25;;;;;;;3.47;1.42;;;18.20;57.80;;;;;;5006610;28;20025;-68
2021/11/20 07:02:03;;;;;;;2.80;2.03;;;18.20;57.70;;;;;;5008469;28;20108;-67
2021/11/20 07:04:28;;;;;;;1.73;1.63;;;18.20;57.80;;;;;;5008274;28;20110;-66
2021/11/20 07:06:56;;;;;;;1.60;1.50;;;18.20;57.80;;;;;;5007119;28;20036;-66
2021/11/20 07:09:21;;;;;;;2.53;1.40;;;18.20;57.80;;;;;;5006930;28;20041;-67
2021/11/20 07:11:47;;;;;;;1.63;1.52;;;18.20;57.80;;;;;;5007806;28;20034;-66
2021/11/20 07:14:13;;;;;;;2.47;1.90;;;18.20;57.80;;;;;;5007942;28;20423;-66
2021/11/20 07:16:38;;;;;;;1.80;1.70;;;18.20;57.80;;;;;;5008275;28;20068;-66
2021/11/20 07:19:04;;;;;;;1.70;1.50;;;18.20;57.80;;;;;;5006240;28;20072;-67
2021/11/20 07:21:29;;;;;;;2.33;1.85;;;18.20;57.80;;;;;;5008054;28;20144;-65
2021/11/20 07:23:57;;;;;;;1.75;1.48;;;18.20;57.80;;;;;;5007476;28;20041;-67
2021/11/20 07:26:22;;;;;;;2.50;1.70;;;18.20;57.80;;;;;;5007628;28;20118;-65
2021/11/20 07:28:49;;;;;;;1.50;1.40;;;18.20;57.80;;;;;;5007565;28;20086;-67
2021/11/20 07:31:14;;;;;;;4.32;1.60;;;18.20;57.70;;;;;;5007733;28;20026;-70
2021/11/20 07:33:40;;;;;;;2.65;1.98;;;18.20;58.30;;;;;;5006574;28;20041;-67
2021/11/20 07:36:06;;;;;;;7.45;2.80;;;18.20;57.80;;;;;;5006073;28;20635;-67
2021/11/20 07:38:43;;;;;;;5.38;3.03;;;18.20;57.80;;;;;;5007062;28;20109;-67
2021/11/20 07:41:08;;;;;;;12.90;3.42;;;18.20;57.90;;;;;;5007285;28;20044;-68
2021/11/20 07:43:35;;;;;;;7.38;3.05;;;18.20;58.00;;;;;;5006191;28;20034;-67
2021/11/20 07:46:00;;;;;;;7.78;2.80;;;18.20;58.10;;;;;;5005943;28;20018;-68
2021/11/20 07:48:27;;;;;;;8.82;3.10;;;18.20;58.20;;;;;;5004734;28;20029;-68
2021/11/20 07:50:53;;;;;;;6.10;3.60;;;18.20;58.20;;;;;;5004508;28;20018;-69
2021/11/20 07:53:18;;;;;;;7.10;2.83;;;18.20;58.30;;;;;;5006577;28;20611;-68
2021/11/20 07:55:45;;;;;;;14.23;3.20;;;18.20;58.30;;;;;;5006993;28;20066;-67
2021/11/20 07:58:10;;;;;;;7.93;3.53;;;18.30;58.20;;;;;;5007276;28;20040;-68
2021/11/20 08:00:36;;;;;;;4.05;2.80;;;18.20;58.20;;;;;;5006538;28;20404;-70
2021/11/20 08:03:02;;;;;;;5.43;2.95;;;18.20;58.20;;;;;;5005430;28;20025;-67
2021/11/20 08:05:28;;;;;;;6.90;2.67;;;18.20;58.20;;;;;;5006471;28;20032;-67
2021/11/20 08:07:54;;;;;;;10.52;2.90;;;18.20;58.10;;;;;;5006590;28;20021;-67
2021/11/20 08:10:20;;;;;;;8.10;3.55;;;18.20;58.20;;;;;;5006759;28;20033;-67
2021/11/20 08:12:46;;;;;;;7.38;3.00;;;18.20;58.20;;;;;;5005422;28;20022;-67
2021/11/20 08:15:11;;;;;;;7.10;2.80;;;18.20;58.20;;;;;;5007262;28;20087;-69
2021/11/20 08:17:37;;;;;;;11.43;2.83;;;18.20;58.10;;;;;;5007317;28;20026;-67
2021/11/20 08:20:06;;;;;;;5.60;2.78;;;18.20;58.10;;;;;;5006632;28;20021;-66
2021/11/20 08:22:32;;;;;;;4.93;2.78;;;18.20;58.10;;;;;;5007088;28;20104;-67
2021/11/20 08:24:57;;;;;;;7.07;2.40;;;18.20;58.00;;;;;;5007328;28;20029;-67
2021/11/20 08:27:23;;;;;;;8.32;3.05;;;18.20;58.00;;;;;;5007003;28;20025;-66
2021/11/20 08:29:48;;;;;;;8.15;2.30;;;18.20;58.00;;;;;;5007783;28;20030;-68
2021/11/20 08:32:14;;;;;;;6.53;2.35;;;18.20;57.90;;;;;;5007666;28;20767;-67
2021/11/20 08:34:45;;;;;;;4.45;2.30;;;18.20;57.90;;;;;;5005194;28;20030;-67
2021/11/20 08:37:10;;;;;;;4.80;2.47;;;18.20;57.90;;;;;;5006846;28;20076;-66
2021/11/20 08:39:36;;;;;;;3.70;2.42;;;18.20;57.90;;;;;;5007263;28;20652;-66
2021/11/20 08:42:01;;;;;;;5.78;2.25;;;18.10;57.80;;;;;;5007560;28;20041;-66
2021/11/20 08:44:27;;;;;;;3.63;2.20;;;18.10;57.80;;;;;;5007402;28;20025;-66
2021/11/20 08:46:53;;;;;;;5.18;2.40;;;18.10;57.80;;;;;;5007931;28;20125;-67
2021/11/20 08:49:18;;;;;;;5.95;2.70;;;18.10;58.30;;;;;;5006589;28;20088;-68
2021/11/20 08:51:44;;;;;;;10.77;2.83;;;18.10;59.00;;;;;;5005373;28;20029;-67
2021/11/20 08:54:10;;;;;;;6.20;2.97;;;18.10;59.20;;;;;;5006430;28;20014;-69
2021/11/20 08:56:38;;;;;;;4.68;2.45;;;18.10;59.20;;;;;;5006590;28;20032;-68
2021/11/20 08:59:04;;;;;;;3.97;2.65;;;18.10;59.30;;;;;;5003157;28;20042;-67
2021/11/20 09:01:32;;;;;;;4.32;3.30;;;18.10;60.10;;;;;;5005581;28;20034;-66
2021/11/20 09:04:14;;;;;;;11.27;5.45;;;18.10;60.30;;;;;;5004921;28;20088;-67
2021/11/20 09:06:54;;;;;;;43.13;18.60;;;18.10;60.40;;;;;;5005895;28;20033;-67
2021/11/20 09:09:28;;;;;;;43.50;18.95;;;18.10;60.50;;;;;;5005657;28;20021;-67
2021/11/20 09:12:11;;;;;;;38.72;16.60;;;18.10;60.60;;;;;;5005416;28;20026;-67
2021/11/20 09:15:06;;;;;;;39.08;15.30;;;18.10;60.30;;;;;;5004445;28;20018;-67
2021/11/20 09:17:31;;;;;;;29.10;12.82;;;18.10;60.00;;;;;;5003505;28;20041;-68
2021/11/20 09:19:57;;;;;;;28.48;11.82;;;18.10;59.50;;;;;;5005430;28;20034;-68
2021/11/20 09:22:22;;;;;;;22.70;10.75;;;18.10;59.20;;;;;;5006004;28;20045;-67
2021/11/20 09:24:48;;;;;;;28.90;10.07;;;18.10;59.00;;;;;;5004515;28;20536;-67
2021/11/20 09:27:14;;;;;;;20.80;9.77;;;18.10;58.90;;;;;;5004651;28;20641;-67
2021/11/20 09:29:39;;;;;;;16.55;8.60;;;18.10;58.70;;;;;;5007056;28;20021;-67
2021/11/20 09:32:06;;;;;;;17.70;8.05;;;18.10;58.70;;;;;;5005729;28;20069;-67
2021/11/20 09:34:32;;;;;;;19.95;8.05;;;18.10;58.70;;;;;;5005253;28;20029;-67
2021/11/20 09:36:58;;;;;;;16.35;8.18;;;18.10;58.80;;;;;;5005678;28;20022;-68
2021/11/20 09:39:26;;;;;;;14.48;7.57;;;18.10;58.70;;;;;;5005489;28;20018;-66
2021/11/20 09:42:00;;;;;;;16.15;7.03;;;18.10;58.80;;;;;;5003676;28;20029;-68
2021/11/20 09:44:26;;;;;;;17.83;7.70;;;18.10;58.90;;;;;;5004116;28;20064;-67
2021/11/20 09:46:53;;;;;;;15.93;6.03;;;18.10;58.90;;;;;;5004275;28;20069;-67
2021/11/20 09:49:27;;;;;;;17.92;6.93;;;18.10;58.90;;;;;;5004591;28;20026;-68
2021/11/20 09:51:54;;;;;;;12.90;6.55;;;18.10;59.00;;;;;;5003988;28;20554;-67
2021/11/20 09:54:28;;;;;;;14.23;6.60;;;18.10;59.10;;;;;;5005488;28;20499;-67
2021/11/20 09:56:58;;;;;;;12.45;6.03;;;18.10;59.10;;;;;;5004035;28;20029;-67
2021/11/20 09:59:31;;;;;;;12.93;6.45;;;18.10;59.10;;;;;;5005245;28;20037;-68
2021/11/20 10:02:12;;;;;;;10.60;5.88;;;18.20;59.20;;;;;;5003801;28;20022;-67
2021/11/20 10:04:59;;;;;;;12.07;6.07;;;18.20;59.20;;;;;;5003684;28;20088;-67
2021/11/20 10:07:43;;;;;;;13.75;5.60;;;18.20;59.30;;;;;;5004364;28;20489;-67
2021/11/20 10:10:14;;;;;;;10.13;5.78;;;18.20;59.40;;;;;;5006787;28;20025;-66
2021/11/20 10:13:03;;;;;;;16.50;5.82;;;18.20;59.40;;;;;;5008401;28;20026;-67
2021/11/20 10:15:30;;;;;;;13.52;5.80;;;18.20;59.50;;;;;;5007347;28;20053;-67
2021/11/20 10:18:12;;;;;;;12.38;5.35;;;18.20;59.50;;;;;;5009009;28;20018;-67
2021/11/20 10:20:41;;;;;;;16.33;6.25;;;18.20;59.50;;;;;;5001861;28;20651;-68
2021/11/20 10:23:10;;;;;;;14.07;6.35;;;18.20;59.50;;;;;;5023194;23;20042;-64
2021/11/20 10:25:47;;;;;;;11.52;5.95;;;18.20;59.40;;;;;;4981938;28;20053;-66
2021/11/20 10:28:40;;;;;;;11.00;5.32;;;18.20;59.40;;;;;;4980370;28;20478;-62
2021/11/20 10:31:31;;;;;;;9.23;5.20;;;18.30;59.40;;;;;;4981271;28;20077;-64
2021/11/20 10:34:08;;;;;;;14.20;5.82;;;18.30;59.40;;;;;;4966229;28;20026;-61
2021/11/20 10:36:44;;;;;;;12.80;6.38;;;18.30;59.30;;;;;;4969337;28;20033;-62
2021/11/20 10:39:17;;;;;;;13.60;5.35;;;18.40;59.40;;;;;;4983155;28;20038;-62
2021/11/20 10:42:24;;;;;;;13.00;5.53;;;18.30;59.30;;;;;;4969326;28;20038;-62
2021/11/20 10:45:15;;;;;;;10.15;5.25;;;18.30;59.30;;;;;;4984036;28;20086;-62
2021/11/20 10:47:52;;;;;;;13.50;5.45;;;18.30;59.30;;;;;;4963562;28;20029;-63
2021/11/20 10:50:37;;;;;;;14.52;5.38;;;18.30;59.30;;;;;;4968091;28;20101;-64
2021/11/20 10:53:09;;;;;;;9.50;5.15;;;18.30;59.30;;;;;;4983870;28;20019;-62
2021/11/20 10:55:56;;;;;;;10.10;4.50;;;18.30;59.30;;;;;;4984132;28;20027;-64
2021/11/20 10:58:43;;;;;;;9.65;4.85;;;18.40;59.30;;;;;;4982184;28;20596;-64
2021/11/20 11:01:11;;;;;;;8.75;4.38;;;18.30;59.30;;;;;;4983682;28;20546;-64
2021/11/20 11:03:41;;;;;;;10.32;4.90;;;18.30;59.20;;;;;;4969151;28;20074;-65
2021/11/20 11:06:28;;;;;;;7.28;4.43;;;18.30;59.30;;;;;;4968802;28;20085;-64
2021/11/20 11:09:19;;;;;;;9.15;4.68;;;18.30;59.20;;;;;;4968340;28;20034;-64
2021/11/20 11:12:09;;;;;;;8.63;5.30;;;18.40;59.30;;;;;;4973419;28;20035;-64
2021/11/20 11:14:42;;;;;;;11.20;5.03;;;18.40;59.20;;;;;;4975546;28;20038;-64
2021/11/20 11:17:29;;;;;;;9.07;5.15;;;18.40;59.20;;;;;;4983392;28;20031;-63
2021/11/20 11:20:17;;;;;;;8.48;5.13;;;18.40;59.20;;;;;;4980648;28;20023;-64
2021/11/20 11:22:55;;;;;;;7.97;4.78;;;18.40;59.20;;;;;;4982702;28;20027;-64
2021/11/20 11:25:28;;;;;;;7.05;4.47;;;18.40;59.20;;;;;;4966618;28;20460;-65
2021/11/20 11:28:04;;;;;;;8.25;4.65;;;18.40;59.10;;;;;;4966973;28;20536;-63
2021/11/20 11:30:36;;;;;;;6.63;4.20;;;18.40;59.10;;;;;;4983078;28;20035;-63
2021/11/20 11:33:01;;;;;;;8.50;4.43;;;18.40;59.10;;;;;;4968747;28;20037;-65
2021/11/20 11:35:27;;;;;;;8.40;4.85;;;18.40;59.00;;;;;;4968245;28;20023;-64
2021/11/20 11:38:09;;;;;;;7.63;4.72;;;18.40;59.00;;;;;;4968207;28;20593;-64
2021/11/20 11:41:05;;;;;;;8.38;4.38;;;18.40;59.10;;;;;;4966492;28;20034;-64
2021/11/20 11:44:08;;;;;;;10.75;4.10;;;18.40;59.10;;;;;;4981556;28;20635;-64
2021/11/20 11:46:55;;;;;;;6.68;4.30;;;18.40;59.10;;;;;;4967853;28;20098;-64
2021/11/20 11:49:54;;;;;;;6.97;4.70;;;18.40;59.00;;;;;;4967065;28;20022;-64
2021/11/20 11:52:43;;;;;;;5.57;3.63;;;18.30;58.90;;;;;;4967690;28;20169;-64
2021/11/20 11:55:19;;;;;;;7.93;4.00;;;18.40;59.00;;;;;;4967888;28;20473;-64
2021/11/20 11:58:05;;;;;;;7.10;3.80;;;18.40;59.00;;;;;;4967454;28;20038;-64
2021/11/20 12:00:57;;;;;;;6.78;4.45;;;18.40;58.90;;;;;;4959999;28;20027;-64
2021/11/20 12:03:25;;;;;;;7.22;4.18;;;18.40;58.90;;;;;;4965808;28;20524;-64
2021/11/20 12:06:14;;;;;;;7.03;4.00;;;18.30;58.90;;;;;;4967541;28;20027;-64
2021/11/20 12:08:53;;;;;;;5.40;3.60;;;18.30;59.00;;;;;;4965304;28;20026;-64
2021/11/20 12:11:27;;;;;;;4.93;3.72;;;18.30;59.00;;;;;;4967455;28;20094;-64
2021/11/20 12:13:53;;;;;;;7.30;4.05;;;18.40;59.00;;;;;;4967382;28;20486;-64
2021/11/20 12:16:18;;;;;;;9.00;3.63;;;18.30;59.00;;;;;;4967372;28;20058;-64
2021/11/20 12:18:44;;;;;;;5.90;3.92;;;18.30;59.00;;;;;;4967387;28;20619;-66
2021/11/20 12:21:37;;;;;;;7.30;3.60;;;18.30;59.00;;;;;;4982457;28;20053;-64
2021/11/20 12:24:24;;;;;;;5.40;3.45;;;18.30;59.00;;;;;;4981727;28;20078;-64
2021/11/20 12:26:54;;;;;;;4.47;3.03;;;18.30;59.10;;;;;;4967261;28;20026;-64
2021/11/20 12:29:31;;;;;;;4.82;3.60;;;18.30;59.00;;;;;;4981706;28;20026;-63
2021/11/20 12:32:22;;;;;;;7.18;3.30;;;18.30;59.00;;;;;;4982734;28;20441;-62
2021/11/20 12:35:11;;;;;;;5.03;3.40;;;18.30;59.10;;;;;;4966640;28;20023;-64
2021/11/20 12:37:51;;;;;;;6.53;3.78;;;18.30;59.00;;;;;;4981899;28;20117;-64
2021/11/20 12:40:51;;;;;;;3.90;3.25;;;18.20;59.00;;;;;;4981728;28;20175;-61
2021/11/20 12:43:21;;;;;;;4.97;3.60;;;18.20;59.00;;;;;;4965842;28;20066;-61
2021/11/20 12:45:59;;;;;;;5.57;3.42;;;18.20;59.00;;;;;;4981749;28;20019;-62
2021/11/20 12:48:50;;;;;;;5.75;3.33;;;18.20;59.00;;;;;;4979040;28;20057;-61
2021/11/20 12:51:31;;;;;;;8.02;3.83;;;18.20;59.10;;;;;;4978701;28;20036;-61
2021/11/20 12:54:20;;;;;;;4.43;3.45;;;18.20;59.10;;;;;;4981969;28;20026;-62
2021/11/20 12:56:46;;;;;;;5.10;3.70;;;18.20;59.10;;;;;;4968713;28;20031;-61
2021/11/20 12:59:26;;;;;;;4.75;3.60;;;18.20;59.10;;;;;;4967401;28;20027;-61
2021/11/20 13:01:57;;;;;;;4.47;3.58;;;18.20;59.10;;;;;;4967713;28;20031;-61
2021/11/20 13:04:41;;;;;;;6.80;3.70;;;18.20;59.10;;;;;;4962465;28;20069;-62